createdAt,value
2022-08-14T00:00:25.053Z,101107.63
2022-08-14T00:05:31.651Z,101105.66
2022-08-14T00:10:51.141Z,101102.75
2022-08-14T00:16:41.070Z,101095.72
2022-08-14T00:21:42.024Z,101084.66
2022-08-14T00:26:43.868Z,101080.13
2022-08-14T00:31:46.051Z,101073.34
2022-08-14T00:36:48.622Z,101068.81
2022-08-14T00:41:51.356Z,101066.00
2022-08-14T00:46:54.427Z,101064.00
2022-08-14T00:52:01.123Z,101057.22
2022-08-14T00:57:03.341Z,101058.34
2022-08-14T01:02:05.956Z,101054.09
2022-08-14T01:07:14.292Z,101042.81
2022-08-14T01:12:27.348Z,101046.16
2022-08-14T01:17:59.210Z,101038.56
2022-08-14T01:23:02.485Z,101026.13
2022-08-14T01:28:06.930Z,101012.25
2022-08-14T01:33:13.472Z,101004.94
2022-08-14T01:38:15.388Z,101000.41
2022-08-14T01:43:35.944Z,101001.22
2022-08-14T01:48:40.462Z,100991.63
2022-08-14T01:53:45.177Z,100993.28
2022-08-14T01:58:57.632Z,100986.81
2022-08-14T02:03:59.891Z,100978.66
2022-08-14T02:09:04.412Z,100980.03
2022-08-14T02:14:31.250Z,100980.53
2022-08-14T02:19:35.840Z,100986.72
2022-08-14T02:24:40.261Z,100976.25
2022-08-14T02:29:56.307Z,100981.59
2022-08-14T02:35:07.019Z,100972.28
2022-08-14T02:40:12.746Z,100970.03
2022-08-14T02:45:15.637Z,100971.94
2022-08-14T02:50:20.087Z,100972.75
2022-08-14T02:55:31.033Z,100971.59
2022-08-14T03:00:39.919Z,100964.25
2022-08-14T03:05:42.518Z,100957.13
2022-08-14T03:10:49.050Z,100945.81
2022-08-14T03:15:56.286Z,100960.91
2022-08-14T03:21:02.816Z,100940.09
2022-08-14T03:26:05.496Z,100932.50
2022-08-14T03:31:13.142Z,100931.59
2022-08-14T03:37:38.856Z,100922.59
2022-08-14T03:41:39.493Z,100919.19
2022-08-14T03:46:54.938Z,100927.59
2022-08-14T03:52:00.803Z,100922.47
2022-08-14T03:57:03.939Z,100918.75
2022-08-14T04:02:09.550Z,100916.44
2022-08-14T04:07:27.994Z,100913.28
2022-08-14T04:12:36.061Z,100905.97
2022-08-14T04:17:38.091Z,100911.28
2022-08-14T04:22:44.153Z,100906.69
2022-08-14T04:28:01.865Z,100912.81
2022-08-14T04:33:13.375Z,100909.06
2022-08-14T04:38:40.754Z,100903.47
2022-08-14T04:43:42.972Z,100902.22
2022-08-14T04:48:51.254Z,100896.66
2022-08-14T04:53:57.485Z,100901.13
2022-08-14T04:59:05.232Z,100896.00
2022-08-14T05:04:16.074Z,100894.84
2022-08-14T05:09:18.283Z,100892.59
2022-08-14T05:14:45.561Z,100888.03
2022-08-14T05:21:04.433Z,100880.69
2022-08-14T05:25:07.457Z,100882.91
2022-08-14T05:30:09.763Z,100873.84
2022-08-14T05:35:11.992Z,100865.72
2022-08-14T05:40:16.792Z,100864.44
2022-08-14T05:45:20.454Z,100865.09
2022-08-14T05:50:22.140Z,100871.81
2022-08-14T05:55:26.174Z,100864.22
2022-08-14T06:00:37.174Z,100853.97
2022-08-14T06:05:41.728Z,100852.25
2022-08-14T06:10:44.381Z,100857.38
2022-08-14T06:15:47.640Z,100860.16
2022-08-14T06:20:49.601Z,100857.38
2022-08-14T06:25:52.710Z,100870.13
2022-08-14T06:30:56.105Z,100867.06
2022-08-14T06:35:58.320Z,100857.47
2022-08-14T06:41:00.627Z,100863.66
2022-08-14T06:46:04.021Z,100864.19
2022-08-14T06:51:06.087Z,100854.97
2022-08-14T06:56:07.800Z,100851.75
2022-08-14T07:01:28.347Z,100838.03
2022-08-14T07:06:46.586Z,100838.09
2022-08-14T07:11:49.709Z,100844.22
2022-08-14T07:16:51.393Z,100834.19
2022-08-14T07:21:53.027Z,100829.75
2022-08-14T07:26:55.075Z,100830.34
2022-08-14T07:31:57.016Z,100824.78
2022-08-14T07:37:01.098Z,100828.81
2022-08-14T07:42:02.895Z,100834.31
2022-08-14T07:47:05.286Z,100833.56
2022-08-14T07:52:07.428Z,100836.69
2022-08-14T07:57:12.176Z,100835.63
2022-08-14T08:02:19.244Z,100826.97
2022-08-14T08:07:24.916Z,100820.84
2022-08-14T08:12:33.673Z,100821.19
2022-08-14T08:17:39.018Z,100812.22
2022-08-14T08:22:48.431Z,100796.75
2022-08-14T08:28:08.603Z,100792.50
2022-08-14T08:33:11.583Z,100795.66
2022-08-14T08:39:15.646Z,100781.53
2022-08-14T08:43:46.138Z,100780.91
2022-08-14T08:54:19.907Z,100784.19
2022-08-14T08:59:31.661Z,100797.06
2022-08-14T09:04:45.221Z,100791.03
2022-08-14T09:09:59.155Z,100794.16
2022-08-14T09:15:09.057Z,100777.06
2022-08-14T09:20:29.395Z,100766.72
2022-08-14T09:26:00.315Z,100763.72
2022-08-14T09:30:57.851Z,100763.50
2022-08-14T09:36:18.721Z,100767.31
2022-08-14T09:42:20.543Z,100754.69
2022-08-14T09:47:21.296Z,100745.25
2022-08-14T09:52:34.285Z,100741.22
2022-08-14T09:57:36.261Z,100734.41
2022-08-14T10:02:46.139Z,100727.06
2022-08-14T10:07:53.721Z,100727.91
2022-08-14T10:13:02.463Z,100718.66
2022-08-14T10:18:04.468Z,100713.06
2022-08-14T10:23:16.144Z,100708.81
2022-08-14T10:28:57.448Z,100695.53
2022-08-14T10:33:45.962Z,100695.44
2022-08-14T10:38:58.271Z,100688.53
2022-08-14T10:44:21.440Z,100690.22
2022-08-14T10:49:26.531Z,100676.41
2022-08-14T10:54:35.859Z,100672.91
2022-08-14T11:00:13.621Z,100673.63
2022-08-14T11:05:27.098Z,100671.94
2022-08-14T11:10:48.817Z,100670.34
2022-08-14T11:15:51.121Z,100661.72
2022-08-14T11:20:56.780Z,100660.53
2022-08-14T11:26:01.945Z,100654.28
2022-08-14T11:31:08.504Z,100648.97
2022-08-14T11:36:18.529Z,100653.78
2022-08-14T11:41:21.091Z,100651.47
2022-08-14T11:46:29.627Z,100651.94
2022-08-14T11:51:36.112Z,100647.38
2022-08-14T11:56:45.749Z,100646.25
2022-08-14T12:01:48.890Z,100636.41
2022-08-14T12:06:55.990Z,100636.13
2022-08-14T12:11:58.287Z,100627.63
2022-08-14T12:17:03.427Z,100631.75
2022-08-14T12:22:06.871Z,100610.81
2022-08-14T12:27:08.993Z,100599.16
2022-08-14T12:32:12.739Z,100596.53
2022-08-14T12:37:15.536Z,100596.72
2022-08-14T12:42:27.262Z,100589.16
2022-08-14T12:47:37.906Z,100576.25
2022-08-14T12:52:54.080Z,100573.06
2022-08-14T12:58:05.989Z,100571.88
2022-08-14T13:03:29.398Z,100558.97
2022-08-14T13:08:34.356Z,100550.19
2022-08-14T13:13:37.783Z,100547.59
2022-08-14T13:18:48.627Z,100551.78
2022-08-14T13:24:02.996Z,100552.28
2022-08-14T13:29:09.362Z,100536.03
2022-08-14T13:34:13.432Z,100533.34
2022-08-14T13:39:21.102Z,100522.91
2022-08-14T13:44:26.667Z,100524.44
2022-08-14T13:49:29.160Z,100514.00
2022-08-14T13:54:34.557Z,100506.50
2022-08-14T13:59:38.797Z,100501.50
2022-08-14T14:04:42.767Z,100504.38
2022-08-14T14:09:52.810Z,100496.75
2022-08-14T14:15:48.353Z,100503.09
2022-08-14T14:20:50.995Z,100499.09
2022-08-14T14:25:56.956Z,100498.41
2022-08-14T14:31:06.922Z,100489.50
2022-08-14T14:36:14.066Z,100491.41
2022-08-14T14:41:20.665Z,100478.66
2022-08-14T14:46:36.630Z,100471.47
2022-08-14T14:51:43.402Z,100473.34
2022-08-14T14:56:50.316Z,100468.50
2022-08-14T15:01:59.584Z,100464.66
2022-08-14T15:07:01.475Z,100467.84
2022-08-14T15:12:16.098Z,100448.41
2022-08-14T15:17:28.403Z,100452.97
2022-08-14T15:22:38.589Z,100452.13
2022-08-14T15:27:45.906Z,100450.13
2022-08-14T15:32:53.244Z,100436.19
2022-08-14T15:37:56.018Z,100433.38
2022-08-14T15:42:57.990Z,100429.00
2022-08-14T15:48:01.657Z,100429.13
2022-08-14T15:53:03.520Z,100422.75
2022-08-14T15:58:08.139Z,100429.94
2022-08-14T16:03:18.215Z,100428.25
2022-08-14T16:08:30.822Z,100415.31
2022-08-14T16:13:42.023Z,100411.28
2022-08-14T16:18:44.425Z,100411.91
2022-08-14T16:23:47.628Z,100409.69
2022-08-14T16:29:04.990Z,100412.22
2022-08-14T16:34:45.404Z,100402.84
2022-08-14T16:39:30.611Z,100398.41
2022-08-14T16:44:44.029Z,100404.78
2022-08-14T16:50:03.033Z,100402.91
2022-08-14T16:55:09.601Z,100391.06
2022-08-14T17:00:28.706Z,100393.75
2022-08-14T17:05:38.263Z,100385.88
2022-08-14T17:10:42.770Z,100386.97
2022-08-14T17:16:07.731Z,100376.41
2022-08-14T17:21:38.086Z,100374.00
2022-08-14T17:26:45.566Z,100373.84
2022-08-14T17:32:02.236Z,100368.25
2022-08-14T17:37:04.275Z,100375.38
2022-08-14T17:42:08.055Z,100372.84
2022-08-14T17:47:18.638Z,100365.78
2022-08-14T17:52:34.137Z,100362.88
2022-08-14T17:57:40.884Z,100367.31
2022-08-14T18:02:51.094Z,100363.13
2022-08-14T18:08:31.729Z,100361.91
2022-08-14T18:13:16.480Z,100358.97
2022-08-14T18:18:18.615Z,100363.81
2022-08-14T18:23:21.720Z,100368.56
2022-08-14T18:28:49.014Z,100368.25
2022-08-14T18:34:31.174Z,100372.00
2022-08-14T18:40:01.570Z,100359.00
2022-08-14T18:45:29.487Z,100356.09
2022-08-14T18:50:52.961Z,100363.84
2022-08-14T18:56:09.793Z,100360.31
2022-08-14T19:01:34.160Z,100359.59
2022-08-14T19:06:45.788Z,100363.47
2022-08-14T19:12:05.307Z,100360.50
2022-08-14T19:17:42.132Z,100370.44
2022-08-14T19:22:44.103Z,100365.22
2022-08-14T19:28:31.010Z,100367.94
2022-08-14T19:33:48.870Z,100359.03
2022-08-14T19:38:57.648Z,100361.97
2022-08-14T19:44:16.475Z,100361.75
2022-08-14T19:50:08.617Z,100357.56
2022-08-14T19:54:56.891Z,100353.22
2022-08-14T20:00:29.553Z,100356.69
2022-08-14T20:05:45.519Z,100355.31
2022-08-14T20:11:08.411Z,100346.38
2022-08-14T20:16:20.974Z,100346.69
2022-08-14T20:21:35.313Z,100348.44
2022-08-14T20:26:42.147Z,100350.22
2022-08-14T20:31:48.811Z,100345.28
2022-08-14T20:37:16.405Z,100345.34
2022-08-14T20:42:49.514Z,100338.09
2022-08-14T20:47:56.497Z,100348.66
2022-08-14T20:53:05.820Z,100345.81
2022-08-14T20:58:09.860Z,100342.50
2022-08-14T21:03:56.356Z,100333.53
2022-08-14T21:09:03.071Z,100326.91
2022-08-14T21:14:21.054Z,100318.13
2022-08-14T21:19:30.164Z,100326.16
2022-08-14T21:24:39.227Z,100317.75
2022-08-14T21:29:55.423Z,100314.75
2022-08-14T21:35:02.103Z,100328.34
2022-08-14T21:40:18.734Z,100314.22
2022-08-14T21:45:35.800Z,100314.53
2022-08-14T21:51:02.040Z,100314.31
2022-08-14T21:56:03.917Z,100315.22
2022-08-14T22:01:05.930Z,100306.00
2022-08-14T22:06:13.277Z,100307.53
2022-08-14T22:11:22.602Z,100303.91
2022-08-14T22:17:01.992Z,100302.25
2022-08-14T22:21:51.126Z,100299.72
2022-08-14T22:26:52.849Z,100294.63
2022-08-14T22:31:55.739Z,100298.13
2022-08-14T22:36:57.904Z,100283.78
2022-08-14T22:42:01.555Z,100289.50
2022-08-14T22:47:03.837Z,100290.97
2022-08-14T22:52:32.172Z,100280.56
2022-08-14T22:57:37.855Z,100284.84
2022-08-14T23:02:44.843Z,100273.91
2022-08-14T23:08:57.859Z,100263.84
2022-08-14T23:13:17.420Z,100267.78
2022-08-14T23:18:24.264Z,100268.94
2022-08-14T23:23:31.633Z,100266.25
2022-08-14T23:28:56.946Z,100262.91
2022-08-14T23:34:00.049Z,100259.88
2022-08-14T23:39:07.035Z,100246.03
2022-08-14T23:44:13.569Z,100244.66
2022-08-14T23:49:16.559Z,100248.69
2022-08-14T23:54:49.411Z,100242.25
2022-08-14T23:59:45.040Z,100231.84
